Thompsonville, MI (49683)

6:23 AM EDT on July 05, 2015 (GMT -0400)
thompsonville | | Change Station
CLOSE
Current Station
Personal Weather Station
Location: Thompsonville, MI
Elevation: 748 ft
Nearby Weather Stations

Elev 748 ft 44.50 °N, 85.99 °W | Updated 2 minutes ago

Clear
Clear
51.4 °F
Feels Like 51.4 °F
N
0.0
Wind Variable Wind from NNW

Today
High -- | Low -- °F
--% Chance of Precip.
Yesterday
High -- | Low -- °F
Precip. -- in
6:05 AM 9:31 PM
Waning Gibbous, 86% visible
Pressure 30.05 in
Visibility 7.0 miles
Clouds Clear
Dew Point 51 °F
Humidity 99%
Rainfall 0.00 in
Snow Depth Not available.
UV 0 out of 12
Pollen 4.40 out of 12
Air Quality Not available.
Flu Activity Not available.
METAR KFKS 051014Z AUTO 00000KT 7SM CLR 13/10 A3005 RMK AO2 T01320098

More Conditions Fewer Conditions

Pressure 30.05 in
Visibility 7.0 miles
Clouds Clear
Dew Point 51 °F
Humidity 99%
Rainfall 0.00 in
Snow Depth Not available.
UV 0 out of 12
Pollen 4.40 out of 12
Air Quality Not available.
Flu Activity Not available.
METAR KFKS 051014Z AUTO 00000KT 7SM CLR 13/10 A3005 RMK AO2 T01320098

More Conditions Fewer Conditions

Nowcast | as of 6:00 am EDT on July 5, 2015

At 7 am...mostly clear. Patchy fog. Temperature 62. South winds 6 mph. At 9 am...mostly clear. Temperature 67. South winds 8 mph. At 11 am...mostly clear. Temperature 73. South winds 9 mph. At 1 PM...mostly clear. Temperature 76. Southwest winds 11 mph.

×

10-Day Weather Forecast

×

Almanac

Astronomy

Jul. 05, 2015 Rise Set
Actual Time
Civil Twilight
Nautical Twilight
Astronomical Twilight
Moon
Length of Visible Light
Length of Day
Tomorrow will be .
, % of the Moon is Illuminated

Today's Extremes

State Highs State Lows

Community

WunderPhotos

Upload Photos

1,835,220 photos uploaded!

WunderBlogs® & News

Nearby

Air Quality

  Air Quality AQ Index Pollutant
Not available.

Snow Depth

Station Depth Elevation

Earthquake Activity

City Distance Mag. Time & Date
Minimum magnitude displayed is 2.5.

Coastal Water Temperatures

Place Temperature

Stations

Nearby Weather Stations

Station Location Temp. Windchill Dew Point Humidity Wind Precip. Elev Updated Type